sensor_id;sensor_type;location;lat;lon;timestamp;pressure;altitude;pressure_sealevel;temperature;humidity
4410;BME280;2218;51.408;7.208;2023-07-29T00:01:41;98997.47;;;21.92;65.53
4410;BME280;2218;51.408;7.208;2023-07-29T00:04:08;98995.53;;;21.94;65.38
4410;BME280;2218;51.408;7.208;2023-07-29T00:06:35;98992.16;;;21.92;65.67
4410;BME280;2218;51.408;7.208;2023-07-29T00:09:02;98992.16;;;21.92;65.13
4410;BME280;2218;51.408;7.208;2023-07-29T00:11:29;98990.50;;;21.91;65.25
4410;BME280;2218;51.408;7.208;2023-07-29T00:13:59;98993.03;;;21.93;65.66
4410;BME280;2218;51.408;7.208;2023-07-29T00:16:27;98993.16;;;21.91;65.70
4410;BME280;2218;51.408;7.208;2023-07-29T00:18:55;98986.03;;;21.92;65.09
4410;BME280;2218;51.408;7.208;2023-07-29T00:21:21;98986.88;;;21.92;65.30
4410;BME280;2218;51.408;7.208;2023-07-29T00:23:48;98987.75;;;21.93;65.12
4410;BME280;2218;51.408;7.208;2023-07-29T00:26:15;98979.91;;;21.91;65.16
4410;BME280;2218;51.408;7.208;2023-07-29T00:28:42;98977.28;;;21.91;65.58
4410;BME280;2218;51.408;7.208;2023-07-29T00:31:09;98971.97;;;21.91;65.21
4410;BME280;2218;51.408;7.208;2023-07-29T00:33:37;98970.31;;;21.90;65.55
4410;BME280;2218;51.408;7.208;2023-07-29T00:36:04;98976.28;;;21.92;65.20
4410;BME280;2218;51.408;7.208;2023-07-29T00:38:31;98969.34;;;21.91;65.14
4410;BME280;2218;51.408;7.208;2023-07-29T00:41:00;98964.06;;;21.91;65.48
4410;BME280;2218;51.408;7.208;2023-07-29T00:43:27;98957.09;;;21.90;65.38
4410;BME280;2218;51.408;7.208;2023-07-29T00:45:54;98963.22;;;21.91;65.15
4410;BME280;2218;51.408;7.208;2023-07-29T00:48:23;98965.88;;;21.91;65.32
4410;BME280;2218;51.408;7.208;2023-07-29T00:50:52;98962.38;;;21.90;65.66
4410;BME280;2218;51.408;7.208;2023-07-29T00:53:20;98962.38;;;21.90;65.73
4410;BME280;2218;51.408;7.208;2023-07-29T00:55:49;98957.09;;;21.90;65.01
4410;BME280;2218;51.408;7.208;2023-07-29T00:58:16;98953.63;;;21.90;65.40
4410;BME280;2218;51.408;7.208;2023-07-29T01:00:43;98956.25;;;21.90;65.20
4410;BME280;2218;51.408;7.208;2023-07-29T01:03:10;98958.06;;;21.89;65.70
4410;BME280;2218;51.408;7.208;2023-07-29T01:05:49;98959.75;;;21.90;65.71
4410;BME280;2218;51.408;7.208;2023-07-29T01:08:28;98952.78;;;21.89;65.19
4410;BME280;2218;51.408;7.208;2023-07-29T01:11:08;98950.97;;;21.90;65.69
4410;BME280;2218;51.408;7.208;2023-07-29T01:13:48;98947.34;;;21.91;65.26
4410;BME280;2218;51.408;7.208;2023-07-29T01:16:24;98944.84;;;21.89;65.18
4410;BME280;2218;51.408;7.208;2023-07-29T01:18:55;98941.38;;;21.89;65.24
4410;BME280;2218;51.408;7.208;2023-07-29T01:21:23;98944.84;;;21.89;65.09
4410;BME280;2218;51.408;7.208;2023-07-29T01:23:58;98944.84;;;21.89;65.10
4410;BME280;2218;51.408;7.208;2023-07-29T01:26:25;98942.22;;;21.89;65.74
4410;BME280;2218;51.408;7.208;2023-07-29T01:28:55;98940.53;;;21.88;65.10
4410;BME280;2218;51.408;7.208;2023-07-29T01:31:34;98946.66;;;21.89;65.10
4410;BME280;2218;51.408;7.208;2023-07-29T01:34:17;98940.53;;;21.88;65.23
4410;BME280;2218;51.408;7.208;2023-07-29T01:36:46;98932.59;;;21.88;65.58
4410;BME280;2218;51.408;7.208;2023-07-29T01:39:17;98937.91;;;21.88;65.39
4410;BME280;2218;51.408;7.208;2023-07-29T01:41:46;98932.59;;;21.88;65.50
4410;BME280;2218;51.408;7.208;2023-07-29T01:44:14;98932.59;;;21.88;65.09
4410;BME280;2218;51.408;7.208;2023-07-29T01:46:44;98932.59;;;21.88;65.31
4410;BME280;2218;51.408;7.208;2023-07-29T01:49:11;98924.69;;;21.88;65.65
4410;BME280;2218;51.408;7.208;2023-07-29T01:51:38;98917.69;;;21.87;64.97
4410;BME280;2218;51.408;7.208;2023-07-29T01:54:05;98909.75;;;21.87;65.48
4410;BME280;2218;51.408;7.208;2023-07-29T01:56:33;98926.47;;;21.88;65.04
4410;BME280;2218;51.408;7.208;2023-07-29T01:59:00;98925.63;;;21.87;65.20
4410;BME280;2218;51.408;7.208;2023-07-29T02:01:28;98922.03;;;21.88;65.12
4410;BME280;2218;51.408;7.208;2023-07-29T02:03:56;98927.44;;;21.87;65.29
4410;BME280;2218;51.408;7.208;2023-07-29T02:06:24;98927.31;;;21.88;65.41
4410;BME280;2218;51.408;7.208;2023-07-29T02:08:52;98920.34;;;21.87;65.51
4410;BME280;2218;51.408;7.208;2023-07-29T02:11:19;98924.78;;;21.87;65.62
4410;BME280;2218;51.408;7.208;2023-07-29T02:13:54;98921.31;;;21.86;64.97
4410;BME280;2218;51.408;7.208;2023-07-29T02:16:22;98914.22;;;21.87;64.92
4410;BME280;2218;51.408;7.208;2023-07-29T02:18:49;98908.09;;;21.86;64.91
4410;BME280;2218;51.408;7.208;2023-07-29T02:21:16;98902.81;;;21.86;65.52
4410;BME280;2218;51.408;7.208;2023-07-29T02:23:43;98897.50;;;21.86;64.97
4410;BME280;2218;51.408;7.208;2023-07-29T02:26:10;98900.16;;;21.86;64.95
4410;BME280;2218;51.408;7.208;2023-07-29T02:28:37;98887.91;;;21.85;64.96
4410;BME280;2218;51.408;7.208;2023-07-29T02:31:16;98881.63;;;21.86;65.30
4410;BME280;2218;51.408;7.208;2023-07-29T02:33:44;98884.28;;;21.86;65.33
4410;BME280;2218;51.408;7.208;2023-07-29T02:36:13;98885.28;;;21.85;65.66
4410;BME280;2218;51.408;7.208;2023-07-29T02:38:41;98874.69;;;21.85;64.99
4410;BME280;2218;51.408;7.208;2023-07-29T02:41:09;98872.88;;;21.86;65.00
4410;BME280;2218;51.408;7.208;2023-07-29T02:43:38;98869.41;;;21.85;65.36
4410;BME280;2218;51.408;7.208;2023-07-29T02:46:06;98875.53;;;21.86;65.46
4410;BME280;2218;51.408;7.208;2023-07-29T02:48:35;98879.97;;;21.85;65.09
4410;BME280;2218;51.408;7.208;2023-07-29T02:51:02;98873.84;;;21.85;65.50
4410;BME280;2218;51.408;7.208;2023-07-29T02:53:29;98876.50;;;21.85;65.58
4410;BME280;2218;51.408;7.208;2023-07-29T02:55:55;98885.28;;;21.85;65.55
4410;BME280;2218;51.408;7.208;2023-07-29T02:58:22;98892.38;;;21.85;65.56
4410;BME280;2218;51.408;7.208;2023-07-29T03:00:49;98893.22;;;21.85;65.40
4410;BME280;2218;51.408;7.208;2023-07-29T03:03:17;98887.91;;;21.85;64.97
4410;BME280;2218;51.408;7.208;2023-07-29T03:05:46;98886.25;;;21.84;65.14
4410;BME280;2218;51.408;7.208;2023-07-29T03:08:13;98895.84;;;21.85;65.50
4410;BME280;2218;51.408;7.208;2023-07-29T03:10:40;98902.13;;;21.84;65.41
4410;BME280;2218;51.408;7.208;2023-07-29T03:13:07;98901.13;;;21.85;65.61
4410;BME280;2218;51.408;7.208;2023-07-29T03:15:35;98888.91;;;21.84;64.89
4410;BME280;2218;51.408;7.208;2023-07-29T03:18:02;98888.91;;;21.84;65.21
4410;BME280;2218;51.408;7.208;2023-07-29T03:20:28;98894.19;;;21.84;65.23
4410;BME280;2218;51.408;7.208;2023-07-29T03:22:57;98896.00;;;21.84;65.33
4410;BME280;2218;51.408;7.208;2023-07-29T03:25:24;98904.75;;;21.84;64.91
4410;BME280;2218;51.408;7.208;2023-07-29T03:27:51;98904.75;;;21.84;65.17
4410;BME280;2218;51.408;7.208;2023-07-29T03:30:20;98894.19;;;21.84;65.15
4410;BME280;2218;51.408;7.208;2023-07-29T03:32:49;98894.19;;;21.84;65.30
4410;BME280;2218;51.408;7.208;2023-07-29T03:35:16;98897.81;;;21.83;64.95
4410;BME280;2218;51.408;7.208;2023-07-29T03:37:43;98893.47;;;21.82;64.91
4410;BME280;2218;51.408;7.208;2023-07-29T03:40:12;98891.66;;;21.83;64.94
4410;BME280;2218;51.408;7.208;2023-07-29T03:42:38;98896.00;;;21.84;65.46
4410;BME280;2218;51.408;7.208;2023-07-29T03:45:07;98895.16;;;21.83;65.48
4410;BME280;2218;51.408;7.208;2023-07-29T03:47:33;98887.22;;;21.83;64.85
4410;BME280;2218;51.408;7.208;2023-07-29T03:50:02;98877.59;;;21.82;65.33
4410;BME280;2218;51.408;7.208;2023-07-29T03:52:29;98880.25;;;21.82;65.41
4410;BME280;2218;51.408;7.208;2023-07-29T03:54:56;98874.97;;;21.82;65.13
4410;BME280;2218;51.408;7.208;2023-07-29T03:57:24;98875.78;;;21.83;65.40
4410;BME280;2218;51.408;7.208;2023-07-29T03:59:51;98883.72;;;21.83;65.32
4410;BME280;2218;51.408;7.208;2023-07-29T04:02:18;98876.66;;;21.83;64.71
4410;BME280;2218;51.408;7.208;2023-07-29T04:04:45;98874.97;;;21.82;65.49
4410;BME280;2218;51.408;7.208;2023-07-29T04:07:13;98877.59;;;21.82;65.19
4410;BME280;2218;51.408;7.208;2023-07-29T04:09:41;98883.72;;;21.83;64.94
4410;BME280;2218;51.408;7.208;2023-07-29T04:12:09;98886.38;;;21.83;65.40
4410;BME280;2218;51.408;7.208;2023-07-29T04:14:37;98878.59;;;21.81;65.19
4410;BME280;2218;51.408;7.208;2023-07-29T04:17:05;98877.59;;;21.82;64.67
4410;BME280;2218;51.408;7.208;2023-07-29T04:19:32;98872.31;;;21.82;64.76
4410;BME280;2218;51.408;7.208;2023-07-29T04:21:59;98871.38;;;21.83;64.93
4410;BME280;2218;51.408;7.208;2023-07-29T04:24:26;98866.06;;;21.83;65.24
4410;BME280;2218;51.408;7.208;2023-07-29T04:26:53;98856.44;;;21.82;64.83
4410;BME280;2218;51.408;7.208;2023-07-29T04:29:20;98864.38;;;21.82;65.31
4410;BME280;2218;51.408;7.208;2023-07-29T04:31:49;98875.78;;;21.83;64.78
4410;BME280;2218;51.408;7.208;2023-07-29T04:34:18;98875.78;;;21.83;65.23
4410;BME280;2218;51.408;7.208;2023-07-29T04:36:45;98880.25;;;21.82;65.23
4410;BME280;2218;51.408;7.208;2023-07-29T04:39:12;98885.53;;;21.82;64.81
4410;BME280;2218;51.408;7.208;2023-07-29T04:41:39;98885.53;;;21.82;64.77
4410;BME280;2218;51.408;7.208;2023-07-29T04:44:06;98890.84;;;21.82;64.96
4410;BME280;2218;51.408;7.208;2023-07-29T04:46:33;98890.84;;;21.82;65.32
4410;BME280;2218;51.408;7.208;2023-07-29T04:49:02;98897.94;;;21.82;64.75
4410;BME280;2218;51.408;7.208;2023-07-29T04:51:29;98901.41;;;21.82;65.02
4410;BME280;2218;51.408;7.208;2023-07-29T04:53:57;98892.66;;;21.82;65.31
4410;BME280;2218;51.408;7.208;2023-07-29T04:56:24;98899.75;;;21.81;64.77
4410;BME280;2218;51.408;7.208;2023-07-29T04:58:51;98908.50;;;21.82;65.32
4410;BME280;2218;51.408;7.208;2023-07-29T05:01:19;98910.34;;;21.81;64.84
4410;BME280;2218;51.408;7.208;2023-07-29T05:03:47;98910.34;;;21.81;65.28
4410;BME280;2218;51.408;7.208;2023-07-29T05:06:15;98916.44;;;21.82;65.33
4410;BME280;2218;51.408;7.208;2023-07-29T05:08:42;98912.00;;;21.82;64.83
4410;BME280;2218;51.408;7.208;2023-07-29T05:11:09;98925.22;;;21.82;65.26
4410;BME280;2218;51.408;7.208;2023-07-29T05:13:36;98922.56;;;21.82;65.17
4410;BME280;2218;51.408;7.208;2023-07-29T05:16:04;98921.75;;;21.82;64.83
4410;BME280;2218;51.408;7.208;2023-07-29T05:18:33;98927.84;;;21.82;65.40
4410;BME280;2218;51.408;7.208;2023-07-29T05:20:59;98920.06;;;21.81;64.79
4410;BME280;2218;51.408;7.208;2023-07-29T05:23:28;98916.44;;;21.82;64.86
4410;BME280;2218;51.408;7.208;2023-07-29T05:25:55;98896.28;;;21.81;64.83
4410;BME280;2218;51.408;7.208;2023-07-29T05:28:22;98897.94;;;21.82;65.22
4410;BME280;2218;51.408;7.208;2023-07-29T05:30:49;98885.53;;;21.82;65.26
4410;BME280;2218;51.408;7.208;2023-07-29T05:33:16;98876.66;;;21.83;64.97
4410;BME280;2218;51.408;7.208;2023-07-29T05:35:43;98873.84;;;21.85;64.61
4410;BME280;2218;51.408;7.208;2023-07-29T05:38:10;98872.03;;;21.85;65.12
4410;BME280;2218;51.408;7.208;2023-07-29T05:40:39;98879.97;;;21.85;65.11
4410;BME280;2218;51.408;7.208;2023-07-29T05:43:07;98879.97;;;21.85;64.66
4410;BME280;2218;51.408;7.208;2023-07-29T05:45:34;98892.22;;;21.86;64.58
4410;BME280;2218;51.408;7.208;2023-07-29T05:48:00;98908.09;;;21.86;64.97
4410;BME280;2218;51.408;7.208;2023-07-29T05:50:27;98917.00;;;21.85;64.68
4410;BME280;2218;51.408;7.208;2023-07-29T05:52:54;98922.31;;;21.85;64.82
4410;BME280;2218;51.408;7.208;2023-07-29T05:55:21;98931.22;;;21.84;65.25
4410;BME280;2218;51.408;7.208;2023-07-29T05:57:50;98932.88;;;21.85;65.11
4410;BME280;2218;51.408;7.208;2023-07-29T06:00:17;98936.34;;;21.86;65.26
4410;BME280;2218;51.408;7.208;2023-07-29T06:02:44;98948.75;;;21.85;64.69
4410;BME280;2218;51.408;7.208;2023-07-29T06:05:15;98956.69;;;21.85;64.77
4410;BME280;2218;51.408;7.208;2023-07-29T06:07:42;98960.31;;;21.84;65.29
4410;BME280;2218;51.408;7.208;2023-07-29T06:10:12;98957.66;;;21.84;65.14
4410;BME280;2218;51.408;7.208;2023-07-29T06:12:40;98956.00;;;21.83;64.86
4410;BME280;2218;51.408;7.208;2023-07-29T06:15:09;98956.00;;;21.83;64.79
4410;BME280;2218;51.408;7.208;2023-07-29T06:17:37;98950.72;;;21.83;65.23
4410;BME280;2218;51.408;7.208;2023-07-29T06:20:06;98957.66;;;21.84;64.62
4410;BME280;2218;51.408;7.208;2023-07-29T06:22:33;98961.97;;;21.85;64.89
4410;BME280;2218;51.408;7.208;2023-07-29T06:25:00;98966.44;;;21.85;65.24
4410;BME280;2218;51.408;7.208;2023-07-29T06:27:27;98978.81;;;21.84;64.68
4410;BME280;2218;51.408;7.208;2023-07-29T06:29:54;98978.81;;;21.84;64.65
4410;BME280;2218;51.408;7.208;2023-07-29T06:32:22;98999.00;;;21.85;65.20
4410;BME280;2218;51.408;7.208;2023-07-29T06:34:49;98997.34;;;21.84;65.17
4410;BME280;2218;51.408;7.208;2023-07-29T06:37:17;99013.06;;;21.86;65.27
4410;BME280;2218;51.408;7.208;2023-07-29T06:39:44;99001.66;;;21.85;65.17
4410;BME280;2218;51.408;7.208;2023-07-29T06:42:11;99001.66;;;21.85;64.60
4410;BME280;2218;51.408;7.208;2023-07-29T06:44:39;98996.38;;;21.85;64.58
4410;BME280;2218;51.408;7.208;2023-07-29T06:47:06;98999.00;;;21.85;65.14
4410;BME280;2218;51.408;7.208;2023-07-29T06:49:34;98996.38;;;21.85;64.67
4410;BME280;2218;51.408;7.208;2023-07-29T06:52:01;99001.66;;;21.85;65.27
4410;BME280;2218;51.408;7.208;2023-07-29T06:54:28;99008.59;;;21.86;64.80
4410;BME280;2218;51.408;7.208;2023-07-29T06:56:55;99011.25;;;21.86;65.00
4410;BME280;2218;51.408;7.208;2023-07-29T06:59:22;99005.97;;;21.86;64.96
4410;BME280;2218;51.408;7.208;2023-07-29T07:01:50;99008.59;;;21.86;65.12
4410;BME280;2218;51.408;7.208;2023-07-29T07:04:17;99014.72;;;21.87;65.03
4410;BME280;2218;51.408;7.208;2023-07-29T07:06:45;99013.06;;;21.86;65.15
4410;BME280;2218;51.408;7.208;2023-07-29T07:09:12;99010.28;;;21.87;64.52
4410;BME280;2218;51.408;7.208;2023-07-29T07:11:39;98998.03;;;21.86;65.15
4410;BME280;2218;51.408;7.208;2023-07-29T07:14:06;99001.50;;;21.87;64.97
4410;BME280;2218;51.408;7.208;2023-07-29T07:16:33;98995.22;;;21.88;64.58
4410;BME280;2218;51.408;7.208;2023-07-29T07:19:02;98999.69;;;21.87;64.62
4410;BME280;2218;51.408;7.208;2023-07-29T07:21:29;99001.38;;;21.88;64.63
4410;BME280;2218;51.408;7.208;2023-07-29T07:23:57;99002.22;;;21.89;64.97
4410;BME280;2218;51.408;7.208;2023-07-29T07:26:24;99010.00;;;21.90;64.84
4410;BME280;2218;51.408;7.208;2023-07-29T07:28:51;99016.97;;;21.91;64.33
4410;BME280;2218;51.408;7.208;2023-07-29T07:31:18;99012.38;;;21.93;64.68
4410;BME280;2218;51.408;7.208;2023-07-29T07:33:45;99012.38;;;21.93;64.98
4410;BME280;2218;51.408;7.208;2023-07-29T07:36:11;99011.41;;;21.94;64.91
4410;BME280;2218;51.408;7.208;2023-07-29T07:38:38;99002.47;;;21.96;64.26
4410;BME280;2218;51.408;7.208;2023-07-29T07:41:07;99010.25;;;21.97;64.34
4410;BME280;2218;51.408;7.208;2023-07-29T07:43:33;99016.38;;;21.98;64.49
4410;BME280;2218;51.408;7.208;2023-07-29T07:46:03;99008.44;;;21.98;64.54
4410;BME280;2218;51.408;7.208;2023-07-29T07:48:30;99007.50;;;21.99;64.10
4410;BME280;2218;51.408;7.208;2023-07-29T07:50:58;99008.19;;;22.01;64.30
4410;BME280;2218;51.408;7.208;2023-07-29T07:53:25;99005.53;;;22.01;64.74
4410;BME280;2218;51.408;7.208;2023-07-29T07:55:52;99000.25;;;22.01;64.72
4410;BME280;2218;51.408;7.208;2023-07-29T07:58:20;99001.06;;;22.01;64.25
4410;BME280;2218;51.408;7.208;2023-07-29T08:00:47;99007.19;;;22.02;63.89
4410;BME280;2218;51.408;7.208;2023-07-29T08:03:14;99007.19;;;22.02;63.97
4410;BME280;2218;51.408;7.208;2023-07-29T08:05:41;98994.69;;;22.04;64.54
4410;BME280;2218;51.408;7.208;2023-07-29T08:08:08;99000.94;;;22.03;64.47
4410;BME280;2218;51.408;7.208;2023-07-29T08:10:35;99005.28;;;22.04;64.04
4410;BME280;2218;51.408;7.208;2023-07-29T08:13:02;99002.63;;;22.04;64.44
4410;BME280;2218;51.408;7.208;2023-07-29T08:15:30;99003.31;;;22.06;64.05
4410;BME280;2218;51.408;7.208;2023-07-29T08:17:57;99004.97;;;22.07;64.32
4410;BME280;2218;51.408;7.208;2023-07-29T08:20:24;99007.59;;;22.07;63.88
4410;BME280;2218;51.408;7.208;2023-07-29T08:22:50;99001.50;;;22.06;64.09
4410;BME280;2218;51.408;7.208;2023-07-29T08:25:17;99009.28;;;22.08;63.77
4410;BME280;2218;51.408;7.208;2023-07-29T08:27:44;99013.63;;;22.09;64.30
4410;BME280;2218;51.408;7.208;2023-07-29T08:30:12;99009.97;;;22.10;63.67
4410;BME280;2218;51.408;7.208;2023-07-29T08:32:40;99005.53;;;22.10;64.25
4410;BME280;2218;51.408;7.208;2023-07-29T08:35:07;99018.63;;;22.12;64.28
4410;BME280;2218;51.408;7.208;2023-07-29T08:37:34;99011.69;;;22.11;64.04
4410;BME280;2218;51.408;7.208;2023-07-29T08:40:01;99015.03;;;22.13;63.98
4410;BME280;2218;51.408;7.208;2023-07-29T08:42:31;99017.81;;;22.11;63.65
4410;BME280;2218;51.408;7.208;2023-07-29T08:45:07;99018.63;;;22.12;63.94
4410;BME280;2218;51.408;7.208;2023-07-29T08:47:34;99014.19;;;22.12;63.98
4410;BME280;2218;51.408;7.208;2023-07-29T08:50:04;99015.03;;;22.13;63.58
4410;BME280;2218;51.408;7.208;2023-07-29T08:52:32;99013.22;;;22.13;63.58
4410;BME280;2218;51.408;7.208;2023-07-29T08:55:01;99011.41;;;22.14;63.66
4410;BME280;2218;51.408;7.208;2023-07-29T08:57:29;99008.63;;;22.15;63.50
4410;BME280;2218;51.408;7.208;2023-07-29T08:59:57;99002.50;;;22.15;63.81
4410;BME280;2218;51.408;7.208;2023-07-29T09:02:25;99005.13;;;22.15;63.70
4410;BME280;2218;51.408;7.208;2023-07-29T09:04:52;99002.50;;;22.15;63.42
4410;BME280;2218;51.408;7.208;2023-07-29T09:07:21;99000.69;;;22.15;64.07
4410;BME280;2218;51.408;7.208;2023-07-29T09:09:47;99002.50;;;22.15;63.46
4410;BME280;2218;51.408;7.208;2023-07-29T09:12:14;99008.63;;;22.15;64.09
4410;BME280;2218;51.408;7.208;2023-07-29T09:14:42;98997.19;;;22.15;64.00
4410;BME280;2218;51.408;7.208;2023-07-29T09:17:10;98996.22;;;22.16;64.01
4410;BME280;2218;51.408;7.208;2023-07-29T09:19:37;99004.16;;;22.16;63.45
4410;BME280;2218;51.408;7.208;2023-07-29T09:22:05;98989.94;;;22.17;63.99
4410;BME280;2218;51.408;7.208;2023-07-29T09:24:33;98990.75;;;22.17;63.61
4410;BME280;2218;51.408;7.208;2023-07-29T09:27:00;99002.22;;;22.18;63.38
4410;BME280;2218;51.408;7.208;2023-07-29T09:29:28;99009.19;;;22.19;63.31
4410;BME280;2218;51.408;7.208;2023-07-29T09:32:18;99018.78;;;22.20;64.03
4410;BME280;2218;51.408;7.208;2023-07-29T09:34:46;99019.75;;;22.19;63.51
4410;BME280;2218;51.408;7.208;2023-07-29T09:37:17;99013.63;;;22.18;63.43
4410;BME280;2218;51.408;7.208;2023-07-29T09:39:46;99019.75;;;22.19;63.70
4410;BME280;2218;51.408;7.208;2023-07-29T09:42:18;99011.66;;;22.21;63.49
4410;BME280;2218;51.408;7.208;2023-07-29T09:44:46;99010.84;;;22.20;63.39
4410;BME280;2218;51.408;7.208;2023-07-29T09:47:20;99012.50;;;22.21;63.48
4410;BME280;2218;51.408;7.208;2023-07-29T09:49:48;99013.34;;;22.22;63.82
4410;BME280;2218;51.408;7.208;2023-07-29T09:52:16;99005.41;;;22.22;63.32
4410;BME280;2218;51.408;7.208;2023-07-29T09:54:45;99009.84;;;22.21;63.83
4410;BME280;2218;51.408;7.208;2023-07-29T09:57:14;99002.91;;;22.20;63.15
4410;BME280;2218;51.408;7.208;2023-07-29T09:59:42;99009.84;;;22.21;63.47
4410;BME280;2218;51.408;7.208;2023-07-29T10:02:15;99011.50;;;22.22;63.26
4410;BME280;2218;51.408;7.208;2023-07-29T10:04:43;99019.47;;;22.22;63.73
4410;BME280;2218;51.408;7.208;2023-07-29T10:07:12;99024.75;;;22.22;63.75
4410;BME280;2218;51.408;7.208;2023-07-29T10:09:41;99026.56;;;22.22;63.74
4410;BME280;2218;51.408;7.208;2023-07-29T10:12:11;99030.03;;;22.22;63.37
4410;BME280;2218;51.408;7.208;2023-07-29T10:14:38;99030.88;;;22.23;63.21
4410;BME280;2218;51.408;7.208;2023-07-29T10:17:06;99021.28;;;22.22;63.86
4410;BME280;2218;51.408;7.208;2023-07-29T10:19:35;99025.59;;;22.23;63.31
4410;BME280;2218;51.408;7.208;2023-07-29T10:22:05;99015.84;;;22.23;63.12
4410;BME280;2218;51.408;7.208;2023-07-29T10:24:33;99017.53;;;22.24;63.26
4410;BME280;2218;51.408;7.208;2023-07-29T10:27:01;99022.66;;;22.26;62.97
4410;BME280;2218;51.408;7.208;2023-07-29T10:29:31;99019.19;;;22.25;63.58
4410;BME280;2218;51.408;7.208;2023-07-29T10:32:02;99026.28;;;22.25;63.75
4410;BME280;2218;51.408;7.208;2023-07-29T10:34:31;99028.09;;;22.24;63.34
4410;BME280;2218;51.408;7.208;2023-07-29T10:36:59;99028.09;;;22.24;63.09
4410;BME280;2218;51.408;7.208;2023-07-29T10:39:26;99029.78;;;22.25;63.35
4410;BME280;2218;51.408;7.208;2023-07-29T10:41:59;99024.47;;;22.25;63.20
4410;BME280;2218;51.408;7.208;2023-07-29T10:44:52;99024.47;;;22.25;63.06
4410;BME280;2218;51.408;7.208;2023-07-29T10:47:22;99019.19;;;22.25;63.48
4410;BME280;2218;51.408;7.208;2023-07-29T10:49:53;99012.91;;;22.26;63.49
4410;BME280;2218;51.408;7.208;2023-07-29T10:52:40;99020.00;;;22.26;63.16
4410;BME280;2218;51.408;7.208;2023-07-29T10:55:24;99010.25;;;22.26;63.07
4410;BME280;2218;51.408;7.208;2023-07-29T10:57:52;99027.81;;;22.27;63.30
4410;BME280;2218;51.408;7.208;2023-07-29T11:00:21;99013.63;;;22.28;63.34
4410;BME280;2218;51.408;7.208;2023-07-29T11:03:00;99013.63;;;22.28;63.62
4410;BME280;2218;51.408;7.208;2023-07-29T11:05:47;99001.34;;;22.27;63.14
4410;BME280;2218;51.408;7.208;2023-07-29T11:08:28;99017.22;;;22.27;63.21
4410;BME280;2218;51.408;7.208;2023-07-29T11:11:05;99010.09;;;22.28;62.84
4410;BME280;2218;51.408;7.208;2023-07-29T11:13:35;99008.31;;;22.28;63.08
4410;BME280;2218;51.408;7.208;2023-07-29T11:16:04;99002.03;;;22.29;62.84
4410;BME280;2218;51.408;7.208;2023-07-29T11:18:33;98996.75;;;22.29;62.82
4410;BME280;2218;51.408;7.208;2023-07-29T11:21:02;98996.88;;;22.28;62.84
4410;BME280;2218;51.408;7.208;2023-07-29T11:23:31;98997.75;;;22.28;62.87
4410;BME280;2218;51.408;7.208;2023-07-29T11:26:01;98996.75;;;22.29;63.49
4410;BME280;2218;51.408;7.208;2023-07-29T11:28:29;98994.09;;;22.29;62.88
4410;BME280;2218;51.408;7.208;2023-07-29T11:30:57;98985.19;;;22.30;63.33
4410;BME280;2218;51.408;7.208;2023-07-29T11:33:27;98987.69;;;22.32;63.12
4410;BME280;2218;51.408;7.208;2023-07-29T11:35:54;98998.25;;;22.32;62.92
4410;BME280;2218;51.408;7.208;2023-07-29T11:38:22;98998.25;;;22.32;63.29
4410;BME280;2218;51.408;7.208;2023-07-29T11:40:59;99008.72;;;22.33;62.70
4410;BME280;2218;51.408;7.208;2023-07-29T11:43:28;99007.91;;;22.33;62.95
4410;BME280;2218;51.408;7.208;2023-07-29T11:45:55;99014.97;;;22.32;62.82
4410;BME280;2218;51.408;7.208;2023-07-29T11:48:32;99010.53;;;22.33;62.97
4410;BME280;2218;51.408;7.208;2023-07-29T11:51:00;99006.34;;;22.30;62.75
4410;BME280;2218;51.408;7.208;2023-07-29T11:53:29;99001.91;;;22.31;62.96
4410;BME280;2218;51.408;7.208;2023-07-29T11:55:57;98998.41;;;22.30;63.23
4410;BME280;2218;51.408;7.208;2023-07-29T11:58:25;98992.28;;;22.30;63.30
4410;BME280;2218;51.408;7.208;2023-07-29T12:00:52;99001.75;;;22.32;63.13
4410;BME280;2218;51.408;7.208;2023-07-29T12:03:20;98997.16;;;22.34;63.07
4410;BME280;2218;51.408;7.208;2023-07-29T12:05:48;98996.16;;;22.35;62.73
4410;BME280;2218;51.408;7.208;2023-07-29T12:08:16;99009.25;;;22.37;63.14
4410;BME280;2218;51.408;7.208;2023-07-29T12:10:43;98999.50;;;22.37;62.70
4410;BME280;2218;51.408;7.208;2023-07-29T12:13:10;98991.56;;;22.37;62.78
4410;BME280;2218;51.408;7.208;2023-07-29T12:15:38;98987.13;;;22.38;62.48
4410;BME280;2218;51.408;7.208;2023-07-29T12:18:06;98997.72;;;22.38;62.68
4410;BME280;2218;51.408;7.208;2023-07-29T12:20:33;98988.91;;;22.37;63.22
4410;BME280;2218;51.408;7.208;2023-07-29T12:23:02;98989.91;;;22.36;63.29
4410;BME280;2218;51.408;7.208;2023-07-29T12:25:31;98986.25;;;22.37;62.59
4410;BME280;2218;51.408;7.208;2023-07-29T12:28:03;99002.16;;;22.37;62.60
4410;BME280;2218;51.408;7.208;2023-07-29T12:30:30;98993.25;;;22.38;63.15
4410;BME280;2218;51.408;7.208;2023-07-29T12:32:57;98987.81;;;22.40;62.65
4410;BME280;2218;51.408;7.208;2023-07-29T12:35:34;98989.63;;;22.39;63.06
4410;BME280;2218;51.408;7.208;2023-07-29T12:38:03;98989.63;;;22.39;62.50
4410;BME280;2218;51.408;7.208;2023-07-29T12:40:30;98986.97;;;22.39;62.64
4410;BME280;2218;51.408;7.208;2023-07-29T12:42:57;98991.28;;;22.40;63.10
4410;BME280;2218;51.408;7.208;2023-07-29T12:45:24;98989.31;;;22.42;62.89
4410;BME280;2218;51.408;7.208;2023-07-29T12:47:52;98991.97;;;22.42;62.41
4410;BME280;2218;51.408;7.208;2023-07-29T12:50:19;98993.78;;;22.42;62.78
4410;BME280;2218;51.408;7.208;2023-07-29T12:52:46;98991.13;;;22.42;62.61
4410;BME280;2218;51.408;7.208;2023-07-29T12:55:15;99001.88;;;22.40;63.11
4410;BME280;2218;51.408;7.208;2023-07-29T12:57:42;98982.34;;;22.41;62.66
4410;BME280;2218;51.408;7.208;2023-07-29T13:00:11;98995.47;;;22.43;62.77
4410;BME280;2218;51.408;7.208;2023-07-29T13:02:38;98999.63;;;22.45;62.58
4410;BME280;2218;51.408;7.208;2023-07-29T13:05:09;98998.78;;;22.45;62.56
4410;BME280;2218;51.408;7.208;2023-07-29T13:07:36;98987.38;;;22.44;62.82
4410;BME280;2218;51.408;7.208;2023-07-29T13:10:04;98989.03;;;22.45;62.45
4410;BME280;2218;51.408;7.208;2023-07-29T13:12:32;98996.16;;;22.45;62.60
4410;BME280;2218;51.408;7.208;2023-07-29T13:15:00;98983.75;;;22.45;62.77
4410;BME280;2218;51.408;7.208;2023-07-29T13:17:27;98986.38;;;22.45;63.01
4410;BME280;2218;51.408;7.208;2023-07-29T13:19:54;98994.34;;;22.45;62.63
4410;BME280;2218;51.408;7.208;2023-07-29T13:22:21;98992.66;;;22.44;62.37
4410;BME280;2218;51.408;7.208;2023-07-29T13:24:48;98994.47;;;22.44;62.93
4410;BME280;2218;51.408;7.208;2023-07-29T13:27:15;98997.97;;;22.44;62.59
4410;BME280;2218;51.408;7.208;2023-07-29T13:29:43;98991.00;;;22.43;63.00